sensor_id;sensor_type;location;lat;lon;timestamp;P1;durP1;ratioP1;P2;durP2;ratioP2
11665;SDS011;5889;51.350;6.708;2023-08-31T00:01:00;5.50;;;3.00;;
11665;SDS011;5889;51.350;6.708;2023-08-31T00:03:29;8.67;;;3.20;;
11665;SDS011;5889;51.350;6.708;2023-08-31T00:05:56;6.57;;;3.13;;
11665;SDS011;5889;51.350;6.708;2023-08-31T00:08:23;7.33;;;3.20;;
11665;SDS011;5889;51.350;6.708;2023-08-31T00:10:54;4.90;;;3.17;;
11665;SDS011;5889;51.350;6.708;2023-08-31T00:13:22;5.97;;;3.30;;
11665;SDS011;5889;51.350;6.708;2023-08-31T00:15:53;8.03;;;3.60;;
11665;SDS011;5889;51.350;6.708;2023-08-31T00:18:21;6.10;;;3.57;;
11665;SDS011;5889;51.350;6.708;2023-08-31T00:20:49;6.10;;;3.93;;
11665;SDS011;5889;51.350;6.708;2023-08-31T00:23:16;10.40;;;3.77;;
11665;SDS011;5889;51.350;6.708;2023-08-31T00:25:44;8.10;;;3.70;;
11665;SDS011;5889;51.350;6.708;2023-08-31T00:28:11;5.80;;;3.57;;
11665;SDS011;5889;51.350;6.708;2023-08-31T00:30:40;9.23;;;3.73;;
11665;SDS011;5889;51.350;6.708;2023-08-31T00:33:11;7.10;;;3.67;;
11665;SDS011;5889;51.350;6.708;2023-08-31T00:35:38;10.53;;;3.60;;
11665;SDS011;5889;51.350;6.708;2023-08-31T00:38:07;6.50;;;3.90;;
11665;SDS011;5889;51.350;6.708;2023-08-31T00:40:38;10.10;;;3.60;;
11665;SDS011;5889;51.350;6.708;2023-08-31T00:43:06;6.67;;;3.83;;
11665;SDS011;5889;51.350;6.708;2023-08-31T00:45:33;5.47;;;3.57;;
11665;SDS011;5889;51.350;6.708;2023-08-31T00:48:00;7.60;;;3.60;;
11665;SDS011;5889;51.350;6.708;2023-08-31T00:50:29;7.53;;;3.77;;
11665;SDS011;5889;51.350;6.708;2023-08-31T00:52:56;10.13;;;4.20;;
11665;SDS011;5889;51.350;6.708;2023-08-31T00:55:23;9.43;;;3.73;;
11665;SDS011;5889;51.350;6.708;2023-08-31T00:57:51;6.97;;;3.30;;
11665;SDS011;5889;51.350;6.708;2023-08-31T01:00:20;7.53;;;3.57;;
11665;SDS011;5889;51.350;6.708;2023-08-31T01:02:51;10.90;;;3.83;;
11665;SDS011;5889;51.350;6.708;2023-08-31T01:05:37;8.33;;;3.87;;
11665;SDS011;5889;51.350;6.708;2023-08-31T01:08:14;7.50;;;3.40;;
11665;SDS011;5889;51.350;6.708;2023-08-31T01:10:53;6.00;;;3.70;;
11665;SDS011;5889;51.350;6.708;2023-08-31T01:13:28;7.60;;;3.70;;
11665;SDS011;5889;51.350;6.708;2023-08-31T01:15:59;6.83;;;3.67;;
11665;SDS011;5889;51.350;6.708;2023-08-31T01:18:29;8.00;;;4.23;;
11665;SDS011;5889;51.350;6.708;2023-08-31T01:21:02;7.20;;;3.87;;
11665;SDS011;5889;51.350;6.708;2023-08-31T01:23:47;5.13;;;3.83;;
11665;SDS011;5889;51.350;6.708;2023-08-31T01:26:18;5.23;;;3.43;;
11665;SDS011;5889;51.350;6.708;2023-08-31T01:28:46;5.73;;;3.50;;
11665;SDS011;5889;51.350;6.708;2023-08-31T01:31:14;9.60;;;3.90;;
11665;SDS011;5889;51.350;6.708;2023-08-31T01:33:41;6.63;;;3.67;;
11665;SDS011;5889;51.350;6.708;2023-08-31T01:36:11;7.87;;;3.90;;
11665;SDS011;5889;51.350;6.708;2023-08-31T01:38:44;7.00;;;4.10;;
11665;SDS011;5889;51.350;6.708;2023-08-31T01:41:17;7.60;;;3.87;;
11665;SDS011;5889;51.350;6.708;2023-08-31T01:43:48;12.10;;;4.27;;
11665;SDS011;5889;51.350;6.708;2023-08-31T01:46:17;9.83;;;3.70;;
11665;SDS011;5889;51.350;6.708;2023-08-31T01:48:45;5.63;;;3.40;;
11665;SDS011;5889;51.350;6.708;2023-08-31T01:51:14;8.93;;;4.27;;
11665;SDS011;5889;51.350;6.708;2023-08-31T01:53:42;9.40;;;4.37;;
11665;SDS011;5889;51.350;6.708;2023-08-31T01:56:11;8.10;;;3.97;;
11665;SDS011;5889;51.350;6.708;2023-08-31T01:58:39;9.80;;;4.20;;
11665;SDS011;5889;51.350;6.708;2023-08-31T02:01:05;11.77;;;4.10;;
11665;SDS011;5889;51.350;6.708;2023-08-31T02:03:32;8.90;;;3.80;;
11665;SDS011;5889;51.350;6.708;2023-08-31T02:05:59;10.83;;;3.87;;
11665;SDS011;5889;51.350;6.708;2023-08-31T02:08:26;6.47;;;3.70;;
11665;SDS011;5889;51.350;6.708;2023-08-31T02:10:53;6.87;;;3.80;;
11665;SDS011;5889;51.350;6.708;2023-08-31T02:13:21;5.63;;;3.50;;
11665;SDS011;5889;51.350;6.708;2023-08-31T02:15:50;7.60;;;3.93;;
11665;SDS011;5889;51.350;6.708;2023-08-31T02:18:18;12.60;;;4.40;;
11665;SDS011;5889;51.350;6.708;2023-08-31T02:20:45;6.47;;;4.17;;
11665;SDS011;5889;51.350;6.708;2023-08-31T02:23:12;6.53;;;4.30;;
11665;SDS011;5889;51.350;6.708;2023-08-31T02:25:39;7.27;;;4.17;;
11665;SDS011;5889;51.350;6.708;2023-08-31T02:28:06;9.80;;;4.40;;
11665;SDS011;5889;51.350;6.708;2023-08-31T02:30:34;6.60;;;3.70;;
11665;SDS011;5889;51.350;6.708;2023-08-31T02:33:01;7.70;;;3.87;;
11665;SDS011;5889;51.350;6.708;2023-08-31T02:35:28;7.67;;;3.80;;
11665;SDS011;5889;51.350;6.708;2023-08-31T02:37:55;5.70;;;4.00;;
11665;SDS011;5889;51.350;6.708;2023-08-31T02:40:21;9.10;;;3.80;;
11665;SDS011;5889;51.350;6.708;2023-08-31T02:42:50;7.23;;;4.03;;
11665;SDS011;5889;51.350;6.708;2023-08-31T02:45:17;5.80;;;3.77;;
11665;SDS011;5889;51.350;6.708;2023-08-31T02:47:45;6.73;;;3.63;;
11665;SDS011;5889;51.350;6.708;2023-08-31T02:50:14;6.83;;;3.43;;
11665;SDS011;5889;51.350;6.708;2023-08-31T02:52:41;7.00;;;3.80;;
11665;SDS011;5889;51.350;6.708;2023-08-31T02:55:08;6.27;;;3.70;;
11665;SDS011;5889;51.350;6.708;2023-08-31T02:57:36;6.93;;;4.03;;
11665;SDS011;5889;51.350;6.708;2023-08-31T03:00:03;6.27;;;3.80;;
11665;SDS011;5889;51.350;6.708;2023-08-31T03:02:35;5.80;;;3.93;;
11665;SDS011;5889;51.350;6.708;2023-08-31T03:05:04;7.70;;;4.20;;
11665;SDS011;5889;51.350;6.708;2023-08-31T03:07:31;5.33;;;3.83;;
11665;SDS011;5889;51.350;6.708;2023-08-31T03:09:58;7.73;;;3.70;;
11665;SDS011;5889;51.350;6.708;2023-08-31T03:12:25;8.57;;;3.47;;
11665;SDS011;5889;51.350;6.708;2023-08-31T03:14:52;5.77;;;3.40;;
11665;SDS011;5889;51.350;6.708;2023-08-31T03:17:19;7.50;;;3.43;;
11665;SDS011;5889;51.350;6.708;2023-08-31T03:19:45;5.33;;;3.83;;
11665;SDS011;5889;51.350;6.708;2023-08-31T03:22:14;6.60;;;3.70;;
11665;SDS011;5889;51.350;6.708;2023-08-31T03:24:41;5.73;;;3.33;;
11665;SDS011;5889;51.350;6.708;2023-08-31T03:27:08;7.17;;;3.50;;
11665;SDS011;5889;51.350;6.708;2023-08-31T03:29:35;6.37;;;3.23;;
11665;SDS011;5889;51.350;6.708;2023-08-31T03:32:05;4.57;;;3.33;;
11665;SDS011;5889;51.350;6.708;2023-08-31T03:34:32;5.73;;;3.33;;
11665;SDS011;5889;51.350;6.708;2023-08-31T03:36:59;5.50;;;3.33;;
11665;SDS011;5889;51.350;6.708;2023-08-31T03:39:27;5.17;;;3.30;;
11665;SDS011;5889;51.350;6.708;2023-08-31T03:41:54;3.80;;;3.00;;
11665;SDS011;5889;51.350;6.708;2023-08-31T03:44:21;5.80;;;3.23;;
11665;SDS011;5889;51.350;6.708;2023-08-31T03:46:48;4.60;;;3.03;;
11665;SDS011;5889;51.350;6.708;2023-08-31T03:49:15;6.07;;;3.97;;
11665;SDS011;5889;51.350;6.708;2023-08-31T03:51:42;6.60;;;3.43;;
11665;SDS011;5889;51.350;6.708;2023-08-31T03:54:09;5.47;;;3.37;;
11665;SDS011;5889;51.350;6.708;2023-08-31T03:56:39;4.57;;;2.90;;
11665;SDS011;5889;51.350;6.708;2023-08-31T03:59:06;5.80;;;3.40;;
11665;SDS011;5889;51.350;6.708;2023-08-31T04:01:33;5.57;;;3.40;;
11665;SDS011;5889;51.350;6.708;2023-08-31T04:04:02;6.60;;;3.90;;
11665;SDS011;5889;51.350;6.708;2023-08-31T04:06:30;6.63;;;4.70;;
11665;SDS011;5889;51.350;6.708;2023-08-31T04:08:57;6.47;;;5.37;;
11665;SDS011;5889;51.350;6.708;2023-08-31T04:11:24;7.23;;;4.57;;
11665;SDS011;5889;51.350;6.708;2023-08-31T04:13:52;7.13;;;4.60;;
11665;SDS011;5889;51.350;6.708;2023-08-31T04:16:19;6.10;;;4.17;;
11665;SDS011;5889;51.350;6.708;2023-08-31T04:18:47;7.33;;;4.13;;
11665;SDS011;5889;51.350;6.708;2023-08-31T04:21:16;7.83;;;4.00;;
11665;SDS011;5889;51.350;6.708;2023-08-31T04:23:43;5.17;;;3.93;;
11665;SDS011;5889;51.350;6.708;2023-08-31T04:26:10;6.37;;;3.57;;
11665;SDS011;5889;51.350;6.708;2023-08-31T04:28:38;5.50;;;3.70;;
11665;SDS011;5889;51.350;6.708;2023-08-31T04:31:07;9.20;;;3.87;;
11665;SDS011;5889;51.350;6.708;2023-08-31T04:33:34;7.10;;;4.07;;
11665;SDS011;5889;51.350;6.708;2023-08-31T04:36:01;7.30;;;3.50;;
11665;SDS011;5889;51.350;6.708;2023-08-31T04:38:29;5.27;;;3.37;;
11665;SDS011;5889;51.350;6.708;2023-08-31T04:40:57;9.00;;;4.03;;
11665;SDS011;5889;51.350;6.708;2023-08-31T04:43:25;7.13;;;4.17;;
11665;SDS011;5889;51.350;6.708;2023-08-31T04:45:52;9.37;;;4.17;;
11665;SDS011;5889;51.350;6.708;2023-08-31T04:48:21;6.47;;;4.70;;
11665;SDS011;5889;51.350;6.708;2023-08-31T04:50:48;6.87;;;4.30;;
11665;SDS011;5889;51.350;6.708;2023-08-31T04:53:15;15.27;;;5.30;;
11665;SDS011;5889;51.350;6.708;2023-08-31T04:55:41;9.87;;;4.70;;
11665;SDS011;5889;51.350;6.708;2023-08-31T04:58:09;7.13;;;4.60;;
11665;SDS011;5889;51.350;6.708;2023-08-31T05:00:36;13.20;;;4.77;;
11665;SDS011;5889;51.350;6.708;2023-08-31T05:03:04;6.27;;;4.87;;
11665;SDS011;5889;51.350;6.708;2023-08-31T05:05:33;8.30;;;3.87;;
11665;SDS011;5889;51.350;6.708;2023-08-31T05:08:00;8.03;;;4.77;;
11665;SDS011;5889;51.350;6.708;2023-08-31T05:10:28;8.27;;;4.63;;
11665;SDS011;5889;51.350;6.708;2023-08-31T05:12:54;8.73;;;4.77;;
11665;SDS011;5889;51.350;6.708;2023-08-31T05:15:21;6.63;;;4.77;;
11665;SDS011;5889;51.350;6.708;2023-08-31T05:17:52;5.97;;;4.57;;
11665;SDS011;5889;51.350;6.708;2023-08-31T05:20:19;7.93;;;5.17;;
11665;SDS011;5889;51.350;6.708;2023-08-31T05:22:48;6.63;;;5.13;;
11665;SDS011;5889;51.350;6.708;2023-08-31T05:25:16;7.30;;;4.90;;
11665;SDS011;5889;51.350;6.708;2023-08-31T05:27:42;7.97;;;4.70;;
11665;SDS011;5889;51.350;6.708;2023-08-31T05:30:10;9.03;;;5.67;;
11665;SDS011;5889;51.350;6.708;2023-08-31T05:32:37;7.87;;;5.63;;
11665;SDS011;5889;51.350;6.708;2023-08-31T05:35:04;7.20;;;5.30;;
11665;SDS011;5889;51.350;6.708;2023-08-31T05:37:32;11.10;;;5.63;;
11665;SDS011;5889;51.350;6.708;2023-08-31T05:40:01;12.00;;;5.57;;
11665;SDS011;5889;51.350;6.708;2023-08-31T05:42:35;10.80;;;5.80;;
11665;SDS011;5889;51.350;6.708;2023-08-31T05:45:02;8.93;;;5.90;;
11665;SDS011;5889;51.350;6.708;2023-08-31T05:47:29;11.20;;;6.10;;
11665;SDS011;5889;51.350;6.708;2023-08-31T05:49:56;11.73;;;6.40;;
11665;SDS011;5889;51.350;6.708;2023-08-31T05:52:23;12.20;;;6.43;;
11665;SDS011;5889;51.350;6.708;2023-08-31T05:54:50;10.30;;;6.20;;
11665;SDS011;5889;51.350;6.708;2023-08-31T05:57:19;10.83;;;6.40;;
11665;SDS011;5889;51.350;6.708;2023-08-31T05:59:46;8.83;;;6.40;;
11665;SDS011;5889;51.350;6.708;2023-08-31T06:02:13;11.60;;;5.83;;
11665;SDS011;5889;51.350;6.708;2023-08-31T06:04:40;7.83;;;6.17;;
11665;SDS011;5889;51.350;6.708;2023-08-31T06:07:08;9.23;;;6.13;;
11665;SDS011;5889;51.350;6.708;2023-08-31T06:09:35;10.27;;;6.30;;
11665;SDS011;5889;51.350;6.708;2023-08-31T06:12:03;7.40;;;5.90;;
11665;SDS011;5889;51.350;6.708;2023-08-31T06:14:32;8.43;;;5.87;;
11665;SDS011;5889;51.350;6.708;2023-08-31T06:16:59;6.43;;;5.50;;
11665;SDS011;5889;51.350;6.708;2023-08-31T06:19:25;9.03;;;5.93;;
11665;SDS011;5889;51.350;6.708;2023-08-31T06:21:52;8.73;;;6.03;;
11665;SDS011;5889;51.350;6.708;2023-08-31T06:24:19;9.53;;;6.10;;
11665;SDS011;5889;51.350;6.708;2023-08-31T06:26:46;10.57;;;6.27;;
11665;SDS011;5889;51.350;6.708;2023-08-31T06:29:13;8.23;;;6.10;;
11665;SDS011;5889;51.350;6.708;2023-08-31T06:31:42;9.90;;;6.10;;
11665;SDS011;5889;51.350;6.708;2023-08-31T06:34:09;10.00;;;6.10;;
11665;SDS011;5889;51.350;6.708;2023-08-31T06:36:36;9.57;;;5.80;;
11665;SDS011;5889;51.350;6.708;2023-08-31T06:39:03;11.83;;;6.33;;
11665;SDS011;5889;51.350;6.708;2023-08-31T06:41:31;11.07;;;6.23;;
11665;SDS011;5889;51.350;6.708;2023-08-31T06:43:58;6.27;;;5.20;;
11665;SDS011;5889;51.350;6.708;2023-08-31T06:46:25;11.17;;;5.70;;
11665;SDS011;5889;51.350;6.708;2023-08-31T06:48:54;14.20;;;6.27;;
11665;SDS011;5889;51.350;6.708;2023-08-31T06:51:21;8.67;;;5.47;;
11665;SDS011;5889;51.350;6.708;2023-08-31T06:53:48;12.67;;;5.33;;
11665;SDS011;5889;51.350;6.708;2023-08-31T06:56:15;9.23;;;5.70;;
11665;SDS011;5889;51.350;6.708;2023-08-31T06:58:42;6.27;;;4.97;;
11665;SDS011;5889;51.350;6.708;2023-08-31T07:01:09;8.40;;;4.90;;
11665;SDS011;5889;51.350;6.708;2023-08-31T07:03:40;8.50;;;5.00;;
11665;SDS011;5889;51.350;6.708;2023-08-31T07:06:08;7.23;;;5.03;;
11665;SDS011;5889;51.350;6.708;2023-08-31T07:08:35;6.67;;;4.63;;
11665;SDS011;5889;51.350;6.708;2023-08-31T07:11:05;5.80;;;4.50;;
11665;SDS011;5889;51.350;6.708;2023-08-31T07:13:32;7.87;;;4.90;;
11665;SDS011;5889;51.350;6.708;2023-08-31T07:15:59;7.50;;;4.50;;
11665;SDS011;5889;51.350;6.708;2023-08-31T07:18:26;7.23;;;4.77;;
11665;SDS011;5889;51.350;6.708;2023-08-31T07:20:53;7.63;;;4.03;;
11665;SDS011;5889;51.350;6.708;2023-08-31T07:23:21;8.27;;;4.47;;
11665;SDS011;5889;51.350;6.708;2023-08-31T07:25:48;6.70;;;4.30;;
11665;SDS011;5889;51.350;6.708;2023-08-31T07:28:15;7.80;;;4.37;;
11665;SDS011;5889;51.350;6.708;2023-08-31T07:30:42;7.17;;;4.07;;
11665;SDS011;5889;51.350;6.708;2023-08-31T07:33:10;6.90;;;4.20;;
11665;SDS011;5889;51.350;6.708;2023-08-31T07:35:37;5.13;;;4.20;;
11665;SDS011;5889;51.350;6.708;2023-08-31T07:38:06;7.93;;;4.17;;
11665;SDS011;5889;51.350;6.708;2023-08-31T07:40:34;5.87;;;3.90;;
11665;SDS011;5889;51.350;6.708;2023-08-31T07:43:01;7.00;;;4.40;;
11665;SDS011;5889;51.350;6.708;2023-08-31T07:45:28;8.17;;;4.07;;
11665;SDS011;5889;51.350;6.708;2023-08-31T07:47:55;7.20;;;4.33;;
11665;SDS011;5889;51.350;6.708;2023-08-31T07:50:22;6.50;;;4.00;;
11665;SDS011;5889;51.350;6.708;2023-08-31T07:52:49;9.40;;;4.70;;
11665;SDS011;5889;51.350;6.708;2023-08-31T07:55:16;7.53;;;4.10;;
11665;SDS011;5889;51.350;6.708;2023-08-31T07:57:45;9.50;;;3.73;;
11665;SDS011;5889;51.350;6.708;2023-08-31T08:00:12;7.13;;;3.43;;
11665;SDS011;5889;51.350;6.708;2023-08-31T08:02:40;7.37;;;3.80;;
11665;SDS011;5889;51.350;6.708;2023-08-31T08:05:07;6.10;;;3.67;;
11665;SDS011;5889;51.350;6.708;2023-08-31T08:07:37;5.87;;;3.67;;
11665;SDS011;5889;51.350;6.708;2023-08-31T08:10:04;5.83;;;4.13;;
11665;SDS011;5889;51.350;6.708;2023-08-31T08:12:36;5.97;;;3.80;;
11665;SDS011;5889;51.350;6.708;2023-08-31T08:15:06;9.07;;;4.00;;
11665;SDS011;5889;51.350;6.708;2023-08-31T08:17:33;7.40;;;3.80;;
11665;SDS011;5889;51.350;6.708;2023-08-31T08:20:00;8.80;;;4.03;;
11665;SDS011;5889;51.350;6.708;2023-08-31T08:22:28;6.50;;;4.23;;
11665;SDS011;5889;51.350;6.708;2023-08-31T08:24:55;5.73;;;3.50;;
11665;SDS011;5889;51.350;6.708;2023-08-31T08:27:25;6.10;;;3.37;;
11665;SDS011;5889;51.350;6.708;2023-08-31T08:29:52;8.57;;;3.90;;
11665;SDS011;5889;51.350;6.708;2023-08-31T08:32:20;5.70;;;3.27;;
11665;SDS011;5889;51.350;6.708;2023-08-31T08:34:47;9.77;;;3.60;;
11665;SDS011;5889;51.350;6.708;2023-08-31T08:37:14;9.67;;;3.60;;
11665;SDS011;5889;51.350;6.708;2023-08-31T08:39:41;10.13;;;4.13;;
11665;SDS011;5889;51.350;6.708;2023-08-31T08:42:08;4.10;;;3.00;;
11665;SDS011;5889;51.350;6.708;2023-08-31T08:44:37;6.53;;;3.57;;
11665;SDS011;5889;51.350;6.708;2023-08-31T08:47:05;7.67;;;3.77;;
11665;SDS011;5889;51.350;6.708;2023-08-31T08:49:34;5.03;;;3.83;;
11665;SDS011;5889;51.350;6.708;2023-08-31T08:52:02;6.03;;;3.57;;
11665;SDS011;5889;51.350;6.708;2023-08-31T08:54:30;10.43;;;3.57;;
11665;SDS011;5889;51.350;6.708;2023-08-31T08:56:57;6.85;;;3.78;;
11665;SDS011;5889;51.350;6.708;2023-08-31T08:59:24;5.28;;;3.10;;
11665;SDS011;5889;51.350;6.708;2023-08-31T09:01:51;5.57;;;3.13;;
11665;SDS011;5889;51.350;6.708;2023-08-31T09:04:18;7.28;;;3.35;;
11665;SDS011;5889;51.350;6.708;2023-08-31T09:06:46;4.68;;;3.20;;
11665;SDS011;5889;51.350;6.708;2023-08-31T09:09:13;5.50;;;2.92;;
11665;SDS011;5889;51.350;6.708;2023-08-31T09:11:42;4.53;;;3.13;;
11665;SDS011;5889;51.350;6.708;2023-08-31T09:14:15;5.93;;;2.70;;
11665;SDS011;5889;51.350;6.708;2023-08-31T09:16:44;10.25;;;3.17;;
11665;SDS011;5889;51.350;6.708;2023-08-31T09:19:18;6.28;;;2.60;;
11665;SDS011;5889;51.350;6.708;2023-08-31T09:21:48;5.10;;;2.60;;
11665;SDS011;5889;51.350;6.708;2023-08-31T09:24:15;9.73;;;2.92;;
11665;SDS011;5889;51.350;6.708;2023-08-31T09:26:43;5.03;;;2.67;;
11665;SDS011;5889;51.350;6.708;2023-08-31T09:29:11;4.40;;;2.58;;
11665;SDS011;5889;51.350;6.708;2023-08-31T09:31:41;4.47;;;2.42;;
11665;SDS011;5889;51.350;6.708;2023-08-31T09:34:09;4.05;;;2.58;;
11665;SDS011;5889;51.350;6.708;2023-08-31T09:36:36;7.05;;;2.47;;
11665;SDS011;5889;51.350;6.708;2023-08-31T09:39:07;7.15;;;2.95;;
11665;SDS011;5889;51.350;6.708;2023-08-31T09:41:36;6.63;;;2.72;;
11665;SDS011;5889;51.350;6.708;2023-08-31T09:44:22;5.55;;;2.53;;
11665;SDS011;5889;51.350;6.708;2023-08-31T09:46:49;6.43;;;2.20;;
11665;SDS011;5889;51.350;6.708;2023-08-31T09:49:18;6.32;;;2.70;;
11665;SDS011;5889;51.350;6.708;2023-08-31T09:51:47;4.78;;;2.53;;
11665;SDS011;5889;51.350;6.708;2023-08-31T09:54:17;3.08;;;2.20;;
11665;SDS011;5889;51.350;6.708;2023-08-31T09:56:47;9.65;;;2.50;;
11665;SDS011;5889;51.350;6.708;2023-08-31T09:59:14;4.70;;;2.38;;
11665;SDS011;5889;51.350;6.708;2023-08-31T10:01:43;5.28;;;2.30;;
11665;SDS011;5889;51.350;6.708;2023-08-31T10:04:12;6.90;;;2.65;;
11665;SDS011;5889;51.350;6.708;2023-08-31T10:06:41;4.72;;;2.22;;
11665;SDS011;5889;51.350;6.708;2023-08-31T10:09:09;4.13;;;2.58;;
11665;SDS011;5889;51.350;6.708;2023-08-31T10:11:38;9.98;;;3.63;;
11665;SDS011;5889;51.350;6.708;2023-08-31T10:14:05;7.50;;;2.80;;
11665;SDS011;5889;51.350;6.708;2023-08-31T10:16:33;7.80;;;3.30;;
11665;SDS011;5889;51.350;6.708;2023-08-31T10:19:01;6.90;;;3.30;;
11665;SDS011;5889;51.350;6.708;2023-08-31T10:21:29;7.25;;;2.83;;
11665;SDS011;5889;51.350;6.708;2023-08-31T10:23:56;5.75;;;2.70;;
11665;SDS011;5889;51.350;6.708;2023-08-31T10:26:25;4.00;;;2.40;;
11665;SDS011;5889;51.350;6.708;2023-08-31T10:28:55;6.53;;;2.53;;
11665;SDS011;5889;51.350;6.708;2023-08-31T10:31:22;6.82;;;2.65;;
11665;SDS011;5889;51.350;6.708;2023-08-31T10:33:56;4.50;;;2.35;;
11665;SDS011;5889;51.350;6.708;2023-08-31T10:36:34;6.45;;;3.10;;
11665;SDS011;5889;51.350;6.708;2023-08-31T10:39:05;5.38;;;2.80;;
11665;SDS011;5889;51.350;6.708;2023-08-31T10:41:36;4.28;;;2.63;;
11665;SDS011;5889;51.350;6.708;2023-08-31T10:44:17;6.40;;;2.40;;
11665;SDS011;5889;51.350;6.708;2023-08-31T10:46:44;5.00;;;2.30;;
11665;SDS011;5889;51.350;6.708;2023-08-31T10:49:15;8.63;;;2.60;;
11665;SDS011;5889;51.350;6.708;2023-08-31T10:51:43;6.13;;;2.58;;
11665;SDS011;5889;51.350;6.708;2023-08-31T10:54:11;4.88;;;2.22;;
11665;SDS011;5889;51.350;6.708;2023-08-31T10:56:52;3.42;;;1.95;;
11665;SDS011;5889;51.350;6.708;2023-08-31T10:59:42;5.28;;;2.20;;
11665;SDS011;5889;51.350;6.708;2023-08-31T11:02:10;5.82;;;2.38;;
11665;SDS011;5889;51.350;6.708;2023-08-31T11:04:53;4.65;;;2.10;;
11665;SDS011;5889;51.350;6.708;2023-08-31T11:07:23;6.88;;;2.28;;
11665;SDS011;5889;51.350;6.708;2023-08-31T11:09:51;5.72;;;2.20;;
11665;SDS011;5889;51.350;6.708;2023-08-31T11:12:21;6.22;;;1.83;;
11665;SDS011;5889;51.350;6.708;2023-08-31T11:14:51;6.68;;;2.40;;
11665;SDS011;5889;51.350;6.708;2023-08-31T11:17:17;4.88;;;2.15;;
11665;SDS011;5889;51.350;6.708;2023-08-31T11:19:44;5.30;;;2.28;;
11665;SDS011;5889;51.350;6.708;2023-08-31T11:22:11;5.03;;;2.00;;
11665;SDS011;5889;51.350;6.708;2023-08-31T11:24:38;7.07;;;2.35;;
11665;SDS011;5889;51.350;6.708;2023-08-31T11:27:07;5.47;;;2.00;;
11665;SDS011;5889;51.350;6.708;2023-08-31T11:29:36;3.22;;;1.65;;
11665;SDS011;5889;51.350;6.708;2023-08-31T11:32:06;6.97;;;1.90;;
11665;SDS011;5889;51.350;6.708;2023-08-31T11:34:33;4.25;;;1.95;;
11665;SDS011;5889;51.350;6.708;2023-08-31T11:37:01;4.53;;;2.17;;
11665;SDS011;5889;51.350;6.708;2023-08-31T11:39:29;5.28;;;2.50;;
11665;SDS011;5889;51.350;6.708;2023-08-31T11:41:56;7.78;;;2.38;;
11665;SDS011;5889;51.350;6.708;2023-08-31T11:44:23;8.27;;;2.10;;
11665;SDS011;5889;51.350;6.708;2023-08-31T11:46:51;8.27;;;2.20;;
11665;SDS011;5889;51.350;6.708;2023-08-31T11:49:20;7.43;;;1.90;;
11665;SDS011;5889;51.350;6.708;2023-08-31T11:51:48;5.85;;;2.20;;
11665;SDS011;5889;51.350;6.708;2023-08-31T11:54:16;4.63;;;2.40;;
11665;SDS011;5889;51.350;6.708;2023-08-31T11:56:44;5.38;;;2.10;;
11665;SDS011;5889;51.350;6.708;2023-08-31T11:59:15;8.35;;;2.50;;
11665;SDS011;5889;51.350;6.708;2023-08-31T12:01:42;4.55;;;2.10;;
11665;SDS011;5889;51.350;6.708;2023-08-31T12:04:10;6.55;;;2.30;;
11665;SDS011;5889;51.350;6.708;2023-08-31T12:06:39;6.57;;;2.20;;
11665;SDS011;5889;51.350;6.708;2023-08-31T12:09:07;7.05;;;2.30;;
11665;SDS011;5889;51.350;6.708;2023-08-31T12:11:34;4.95;;;2.10;;
11665;SDS011;5889;51.350;6.708;2023-08-31T12:14:01;4.85;;;2.53;;
11665;SDS011;5889;51.350;6.708;2023-08-31T12:16:32;6.18;;;2.47;;
11665;SDS011;5889;51.350;6.708;2023-08-31T12:19:04;4.28;;;2.25;;
11665;SDS011;5889;51.350;6.708;2023-08-31T12:21:31;6.03;;;2.63;;
11665;SDS011;5889;51.350;6.708;2023-08-31T12:23:59;7.30;;;2.10;;
11665;SDS011;5889;51.350;6.708;2023-08-31T12:26:28;7.05;;;2.20;;
11665;SDS011;5889;51.350;6.708;2023-08-31T12:28:55;5.28;;;2.20;;
11665;SDS011;5889;51.350;6.708;2023-08-31T12:31:22;6.85;;;2.38;;
11665;SDS011;5889;51.350;6.708;2023-08-31T12:33:49;5.30;;;2.10;;
11665;SDS011;5889;51.350;6.708;2023-08-31T12:36:16;7.68;;;3.10;;
11665;SDS011;5889;51.350;6.708;2023-08-31T12:38:43;9.00;;;2.47;;
11665;SDS011;5889;51.350;6.708;2023-08-31T12:41:12;5.72;;;2.28;;
11665;SDS011;5889;51.350;6.708;2023-08-31T12:43:39;5.07;;;2.22;;
11665;SDS011;5889;51.350;6.708;2023-08-31T12:46:05;8.60;;;2.38;;
11665;SDS011;5889;51.350;6.708;2023-08-31T12:48:34;4.47;;;2.20;;
11665;SDS011;5889;51.350;6.708;2023-08-31T12:51:01;5.43;;;2.22;;
11665;SDS011;5889;51.350;6.708;2023-08-31T12:53:28;4.40;;;2.20;;
11665;SDS011;5889;51.350;6.708;2023-08-31T12:55:55;5.03;;;2.10;;
11665;SDS011;5889;51.350;6.708;2023-08-31T12:58:23;4.85;;;2.25;;
11665;SDS011;5889;51.350;6.708;2023-08-31T13:00:50;5.47;;;1.60;;
11665;SDS011;5889;51.350;6.708;2023-08-31T13:03:18;5.88;;;1.88;;
11665;SDS011;5889;51.350;6.708;2023-08-31T13:05:45;5.55;;;2.08;;
11665;SDS011;5889;51.350;6.708;2023-08-31T13:08:14;6.47;;;2.00;;
11665;SDS011;5889;51.350;6.708;2023-08-31T13:10:40;5.35;;;2.17;;
11665;SDS011;5889;51.350;6.708;2023-08-31T13:13:08;6.85;;;2.55;;
11665;SDS011;5889;51.350;6.708;2023-08-31T13:15:36;5.13;;;2.33;;
11665;SDS011;5889;51.350;6.708;2023-08-31T13:18:03;4.65;;;2.20;;
11665;SDS011;5889;51.350;6.708;2023-08-31T13:20:30;5.13;;;2.05;;
11665;SDS011;5889;51.350;6.708;2023-08-31T13:22:57;4.82;;;2.30;;
11665;SDS011;5889;51.350;6.708;2023-08-31T13:25:24;7.28;;;2.50;;
11665;SDS011;5889;51.350;6.708;2023-08-31T13:27:51;5.03;;;2.10;;
11665;SDS011;5889;51.350;6.708;2023-08-31T13:30:18;6.18;;;2.13;;
11665;SDS011;5889;51.350;6.708;2023-08-31T13:32:47;5.45;;;1.90;;
11665;SDS011;5889;51.350;6.708;2023-08-31T13:35:14;5.78;;;2.22;;
11665;SDS011;5889;51.350;6.708;2023-08-31T13:37:41;4.28;;;2.10;;
11665;SDS011;5889;51.350;6.708;2023-08-31T13:40:08;4.07;;;1.90;;
11665;SDS011;5889;51.350;6.708;2023-08-31T13:42:35;1.75;;;1.60;;
11665;SDS011;5889;51.350;6.708;2023-08-31T13:45:04;4.30;;;1.80;;
11665;SDS011;5889;51.350;6.708;2023-08-31T13:47:32;2.75;;;1.52;;
11665;SDS011;5889;51.350;6.708;2023-08-31T13:50:01;3.83;;;1.60;;
11665;SDS011;5889;51.350;6.708;2023-08-31T13:52:29;8.27;;;1.80;;
11665;SDS011;5889;51.350;6.708;2023-08-31T13:54:56;3.33;;;1.63;;
11665;SDS011;5889;51.350;6.708;2023-08-31T13:57:22;3.55;;;2.10;;
11665;SDS011;5889;51.350;6.708;2023-08-31T13:59:49;3.80;;;1.88;;
11665;SDS011;5889;51.350;6.708;2023-08-31T14:02:17;6.05;;;1.80;;
11665;SDS011;5889;51.350;6.708;2023-08-31T14:04:44;8.55;;;2.00;;
11665;SDS011;5889;51.350;6.708;2023-08-31T14:07:13;6.28;;;1.83;;
11665;SDS011;5889;51.350;6.708;2023-08-31T14:09:39;9.25;;;2.38;;
11665;SDS011;5889;51.350;6.708;2023-08-31T14:12:06;2.88;;;1.73;;
11665;SDS011;5889;51.350;6.708;2023-08-31T14:14:36;3.58;;;1.80;;
11665;SDS011;5889;51.350;6.708;2023-08-31T14:17:04;5.38;;;1.80;;
11665;SDS011;5889;51.350;6.708;2023-08-31T14:19:32;3.20;;;1.75;;
11665;SDS011;5889;51.350;6.708;2023-08-31T14:22:00;8.30;;;2.28;;
11665;SDS011;5889;51.350;6.708;2023-08-31T14:24:30;6.13;;;2.95;;
11665;SDS011;5889;51.350;6.708;2023-08-31T14:26:57;4.13;;;2.80;;
11665;SDS011;5889;51.350;6.708;2023-08-31T14:29:24;4.88;;;2.88;;
11665;SDS011;5889;51.350;6.708;2023-08-31T14:31:51;5.95;;;3.75;;
11665;SDS011;5889;51.350;6.708;2023-08-31T14:34:19;6.25;;;3.40;;
11665;SDS011;5889;51.350;6.708;2023-08-31T14:36:46;8.15;;;3.78;;
11665;SDS011;5889;51.350;6.708;2023-08-31T14:39:13;5.77;;;3.43;;
11665;SDS011;5889;51.350;6.708;2023-08-31T14:41:41;5.70;;;3.30;;
11665;SDS011;5889;51.350;6.708;2023-08-31T14:44:08;6.67;;;3.50;;
11665;SDS011;5889;51.350;6.708;2023-08-31T14:46:35;6.33;;;3.30;;
11665;SDS011;5889;51.350;6.708;2023-08-31T14:49:02;6.07;;;3.57;;
11665;SDS011;5889;51.350;6.708;2023-08-31T14:51:29;5.33;;;3.57;;
11665;SDS011;5889;51.350;6.708;2023-08-31T14:53:56;5.50;;;3.60;;
11665;SDS011;5889;51.350;6.708;2023-08-31T14:56:23;5.77;;;3.30;;
11665;SDS011;5889;51.350;6.708;2023-08-31T14:58:51;6.00;;;3.23;;
11665;SDS011;5889;51.350;6.708;2023-08-31T15:01:18;9.20;;;3.70;;
11665;SDS011;5889;51.350;6.708;2023-08-31T15:03:45;6.33;;;3.30;;
11665;SDS011;5889;51.350;6.708;2023-08-31T15:06:12;4.87;;;2.90;;